San Diego, California
Current Conditions -  °F | °C
As of 1:51 PM on Sunday 23 Nov 2014 (Local Time) from KSAN Reporting Station
Scattered Clouds Scattered Clouds  
Wind Chill: 70°   Ceiling: Unl
Heat Index: 70°   Visibility: 10mi
Dew Point: 55°   Wind: 10mph
Humidity: 59%   Direction: 310°NW
Pressure: 30.05"   Gusts: NA
Location:  32.72°N, 117.16°W
Report Text: KSAN 232151Z 31009KT 10SM SCT250 21/13 A3005 RMK AO2 SLP177 T02110128
Loading
Personal Weather Stations






























Interactive Weather Map New forecast layout! Learn more

10-Day Weather Forecast

Advertisements
Track Severe Weather on mobile